sensor_id;sensor_type;location;lat;lon;timestamp;P1;durP1;ratioP1;P2;durP2;ratioP2
45730;SDS011;31440;48.584;13.460;2022-09-03T00:02:47;1.83;;;1.20;;
45730;SDS011;31440;48.584;13.460;2022-09-03T00:08:13;1.38;;;1.27;;
45730;SDS011;31440;48.584;13.460;2022-09-03T00:11:32;4.93;;;1.83;;
45730;SDS011;31440;48.584;13.460;2022-09-03T00:14:05;2.17;;;1.42;;
45730;SDS011;31440;48.584;13.460;2022-09-03T00:16:44;5.70;;;1.73;;
45730;SDS011;31440;48.584;13.460;2022-09-03T00:19:16;1.65;;;1.25;;
45730;SDS011;31440;48.584;13.460;2022-09-03T00:21:47;1.63;;;1.30;;
45730;SDS011;31440;48.584;13.460;2022-09-03T00:24:17;1.52;;;1.42;;
45730;SDS011;31440;48.584;13.460;2022-09-03T00:26:48;1.85;;;1.50;;
45730;SDS011;31440;48.584;13.460;2022-09-03T00:29:23;3.33;;;1.88;;
45730;SDS011;31440;48.584;13.460;2022-09-03T00:31:53;1.63;;;1.45;;
45730;SDS011;31440;48.584;13.460;2022-09-03T00:34:25;2.42;;;1.50;;
45730;SDS011;31440;48.584;13.460;2022-09-03T00:36:56;2.25;;;1.40;;
45730;SDS011;31440;48.584;13.460;2022-09-03T00:39:25;3.53;;;1.38;;
45730;SDS011;31440;48.584;13.460;2022-09-03T00:48:06;1.60;;;1.27;;
45730;SDS011;31440;48.584;13.460;2022-09-03T00:50:37;1.50;;;1.40;;
45730;SDS011;31440;48.584;13.460;2022-09-03T01:01:09;1.60;;;1.50;;
45730;SDS011;31440;48.584;13.460;2022-09-03T01:03:58;5.20;;;1.58;;
45730;SDS011;31440;48.584;13.460;2022-09-03T01:06:48;2.10;;;1.40;;
45730;SDS011;31440;48.584;13.460;2022-09-03T01:09:32;2.30;;;1.30;;
45730;SDS011;31440;48.584;13.460;2022-09-03T01:12:17;1.60;;;1.50;;
45730;SDS011;31440;48.584;13.460;2022-09-03T01:17:48;1.40;;;1.30;;
45730;SDS011;31440;48.584;13.460;2022-09-03T01:20:48;2.90;;;1.80;;
45730;SDS011;31440;48.584;13.460;2022-09-03T01:23:37;1.85;;;1.40;;
45730;SDS011;31440;48.584;13.460;2022-09-03T01:26:29;1.65;;;1.23;;
45730;SDS011;31440;48.584;13.460;2022-09-03T01:42:31;3.35;;;1.50;;
45730;SDS011;31440;48.584;13.460;2022-09-03T01:51:03;2.25;;;1.73;;
45730;SDS011;31440;48.584;13.460;2022-09-03T01:53:40;5.10;;;1.30;;
45730;SDS011;31440;48.584;13.460;2022-09-03T02:02:24;1.30;;;1.20;;
45730;SDS011;31440;48.584;13.460;2022-09-03T02:04:59;1.67;;;1.58;;
45730;SDS011;31440;48.584;13.460;2022-09-03T02:07:26;2.20;;;1.55;;
45730;SDS011;31440;48.584;13.460;2022-09-03T02:09:58;1.65;;;1.40;;
45730;SDS011;31440;48.584;13.460;2022-09-03T02:12:25;2.45;;;1.45;;
45730;SDS011;31440;48.584;13.460;2022-09-03T02:14:55;1.88;;;1.52;;
45730;SDS011;31440;48.584;13.460;2022-09-03T02:17:21;1.58;;;1.20;;
45730;SDS011;31440;48.584;13.460;2022-09-03T02:19:46;2.22;;;1.58;;
45730;SDS011;31440;48.584;13.460;2022-09-03T02:22:12;1.23;;;1.13;;
45730;SDS011;31440;48.584;13.460;2022-09-03T02:24:37;3.35;;;1.48;;
45730;SDS011;31440;48.584;13.460;2022-09-03T02:27:04;1.98;;;1.40;;
45730;SDS011;31440;48.584;13.460;2022-09-03T02:29:29;1.52;;;1.35;;
45730;SDS011;31440;48.584;13.460;2022-09-03T02:31:56;1.92;;;1.30;;
45730;SDS011;31440;48.584;13.460;2022-09-03T02:34:22;3.97;;;1.70;;
45730;SDS011;31440;48.584;13.460;2022-09-03T02:36:48;3.28;;;1.48;;
45730;SDS011;31440;48.584;13.460;2022-09-03T02:39:14;2.20;;;1.65;;
45730;SDS011;31440;48.584;13.460;2022-09-03T02:41:40;1.60;;;1.30;;
45730;SDS011;31440;48.584;13.460;2022-09-03T02:44:14;1.25;;;1.15;;
45730;SDS011;31440;48.584;13.460;2022-09-03T02:47:01;6.07;;;1.60;;
45730;SDS011;31440;48.584;13.460;2022-09-03T02:49:28;2.25;;;1.48;;
45730;SDS011;31440;48.584;13.460;2022-09-03T02:51:56;1.40;;;1.30;;
45730;SDS011;31440;48.584;13.460;2022-09-03T02:54:26;2.58;;;1.42;;
45730;SDS011;31440;48.584;13.460;2022-09-03T02:56:52;2.35;;;1.35;;
45730;SDS011;31440;48.584;13.460;2022-09-03T02:59:18;4.35;;;1.48;;
45730;SDS011;31440;48.584;13.460;2022-09-03T03:01:45;3.13;;;1.35;;
45730;SDS011;31440;48.584;13.460;2022-09-03T03:04:11;2.40;;;1.25;;
45730;SDS011;31440;48.584;13.460;2022-09-03T03:06:37;2.25;;;1.58;;
45730;SDS011;31440;48.584;13.460;2022-09-03T03:09:02;3.55;;;1.50;;
45730;SDS011;31440;48.584;13.460;2022-09-03T03:11:30;2.72;;;2.10;;
45730;SDS011;31440;48.584;13.460;2022-09-03T03:13:56;3.28;;;1.88;;
45730;SDS011;31440;48.584;13.460;2022-09-03T03:16:21;2.65;;;1.20;;
45730;SDS011;31440;48.584;13.460;2022-09-03T03:18:47;3.75;;;1.52;;
45730;SDS011;31440;48.584;13.460;2022-09-03T03:21:14;4.03;;;1.20;;
45730;SDS011;31440;48.584;13.460;2022-09-03T03:23:41;1.30;;;1.20;;
45730;SDS011;31440;48.584;13.460;2022-09-03T03:26:08;2.60;;;1.55;;
45730;SDS011;31440;48.584;13.460;2022-09-03T03:28:36;2.05;;;1.30;;
45730;SDS011;31440;48.584;13.460;2022-09-03T03:31:05;2.40;;;1.70;;
45730;SDS011;31440;48.584;13.460;2022-09-03T03:33:35;1.30;;;1.20;;
45730;SDS011;31440;48.584;13.460;2022-09-03T03:36:12;7.45;;;2.33;;
45730;SDS011;31440;48.584;13.460;2022-09-03T03:38:39;4.45;;;1.70;;
45730;SDS011;31440;48.584;13.460;2022-09-03T03:41:06;1.50;;;1.40;;
45730;SDS011;31440;48.584;13.460;2022-09-03T03:43:56;2.17;;;1.70;;
45730;SDS011;31440;48.584;13.460;2022-09-03T03:46:23;2.40;;;1.77;;
45730;SDS011;31440;48.584;13.460;2022-09-03T03:48:50;2.25;;;1.70;;
45730;SDS011;31440;48.584;13.460;2022-09-03T03:51:16;1.80;;;1.40;;
45730;SDS011;31440;48.584;13.460;2022-09-03T03:53:43;2.60;;;1.70;;
45730;SDS011;31440;48.584;13.460;2022-09-03T03:56:10;1.85;;;1.50;;
45730;SDS011;31440;48.584;13.460;2022-09-03T03:58:37;1.75;;;1.60;;
45730;SDS011;31440;48.584;13.460;2022-09-03T04:03:38;1.60;;;1.50;;
45730;SDS011;31440;48.584;13.460;2022-09-03T04:06:04;3.45;;;1.77;;
45730;SDS011;31440;48.584;13.460;2022-09-03T04:08:33;2.65;;;1.50;;
45730;SDS011;31440;48.584;13.460;2022-09-03T04:11:01;1.50;;;1.40;;
45730;SDS011;31440;48.584;13.460;2022-09-03T04:13:31;1.80;;;1.65;;
45730;SDS011;31440;48.584;13.460;2022-09-03T04:16:20;1.50;;;1.40;;
45730;SDS011;31440;48.584;13.460;2022-09-03T04:18:46;3.15;;;1.65;;
45730;SDS011;31440;48.584;13.460;2022-09-03T04:21:17;3.42;;;1.85;;
45730;SDS011;31440;48.584;13.460;2022-09-03T04:23:45;3.67;;;1.87;;
45730;SDS011;31440;48.584;13.460;2022-09-03T04:26:14;2.15;;;1.70;;
45730;SDS011;31440;48.584;13.460;2022-09-03T04:28:41;3.05;;;2.30;;
45730;SDS011;31440;48.584;13.460;2022-09-03T04:31:08;7.03;;;2.13;;
45730;SDS011;31440;48.584;13.460;2022-09-03T04:33:36;2.80;;;2.08;;
45730;SDS011;31440;48.584;13.460;2022-09-03T04:38:29;2.97;;;2.22;;
45730;SDS011;31440;48.584;13.460;2022-09-03T04:40:56;3.92;;;2.95;;
45730;SDS011;31440;48.584;13.460;2022-09-03T04:43:23;2.33;;;2.13;;
45730;SDS011;31440;48.584;13.460;2022-09-03T04:45:49;2.30;;;2.00;;
45730;SDS011;31440;48.584;13.460;2022-09-03T04:48:15;3.83;;;1.92;;
45730;SDS011;31440;48.584;13.460;2022-09-03T04:50:40;3.70;;;1.90;;
45730;SDS011;31440;48.584;13.460;2022-09-03T04:53:06;3.03;;;2.17;;
45730;SDS011;31440;48.584;13.460;2022-09-03T04:55:35;4.50;;;2.10;;
45730;SDS011;31440;48.584;13.460;2022-09-03T04:58:02;2.03;;;1.80;;
45730;SDS011;31440;48.584;13.460;2022-09-03T05:00:28;3.03;;;1.48;;
45730;SDS011;31440;48.584;13.460;2022-09-03T05:02:53;1.70;;;1.60;;
45730;SDS011;31440;48.584;13.460;2022-09-03T05:05:19;1.67;;;1.50;;
45730;SDS011;31440;48.584;13.460;2022-09-03T05:07:44;1.83;;;1.73;;
45730;SDS011;31440;48.584;13.460;2022-09-03T05:10:11;2.65;;;1.88;;
45730;SDS011;31440;48.584;13.460;2022-09-03T05:12:45;1.90;;;1.70;;
45730;SDS011;31440;48.584;13.460;2022-09-03T05:15:12;2.17;;;1.77;;
45730;SDS011;31440;48.584;13.460;2022-09-03T05:17:38;1.98;;;1.65;;
45730;SDS011;31440;48.584;13.460;2022-09-03T05:20:04;1.83;;;1.73;;
45730;SDS011;31440;48.584;13.460;2022-09-03T05:22:32;4.75;;;1.90;;
45730;SDS011;31440;48.584;13.460;2022-09-03T05:24:59;2.17;;;1.58;;
45730;SDS011;31440;48.584;13.460;2022-09-03T05:27:24;2.05;;;1.83;;
45730;SDS011;31440;48.584;13.460;2022-09-03T05:29:50;2.17;;;1.75;;
45730;SDS011;31440;48.584;13.460;2022-09-03T05:32:15;1.50;;;1.38;;
45730;SDS011;31440;48.584;13.460;2022-09-03T05:34:42;2.38;;;1.88;;
45730;SDS011;31440;48.584;13.460;2022-09-03T05:37:08;2.15;;;1.70;;
45730;SDS011;31440;48.584;13.460;2022-09-03T05:39:34;2.10;;;1.88;;
45730;SDS011;31440;48.584;13.460;2022-09-03T05:41:59;3.58;;;2.00;;
45730;SDS011;31440;48.584;13.460;2022-09-03T05:44:25;2.13;;;1.92;;
45730;SDS011;31440;48.584;13.460;2022-09-03T05:46:50;3.45;;;1.73;;
45730;SDS011;31440;48.584;13.460;2022-09-03T05:49:17;1.70;;;1.60;;
45730;SDS011;31440;48.584;13.460;2022-09-03T05:51:43;2.50;;;1.80;;
45730;SDS011;31440;48.584;13.460;2022-09-03T05:54:09;2.00;;;1.90;;
45730;SDS011;31440;48.584;13.460;2022-09-03T05:56:35;3.03;;;1.80;;
45730;SDS011;31440;48.584;13.460;2022-09-03T05:59:04;1.98;;;1.50;;
45730;SDS011;31440;48.584;13.460;2022-09-03T06:01:32;2.65;;;1.65;;
45730;SDS011;31440;48.584;13.460;2022-09-03T06:04:03;1.95;;;1.75;;
45730;SDS011;31440;48.584;13.460;2022-09-03T06:06:31;2.80;;;1.58;;
45730;SDS011;31440;48.584;13.460;2022-09-03T06:09:00;6.80;;;2.17;;
45730;SDS011;31440;48.584;13.460;2022-09-03T06:11:27;2.83;;;1.85;;
45730;SDS011;31440;48.584;13.460;2022-09-03T06:13:54;2.67;;;1.63;;
45730;SDS011;31440;48.584;13.460;2022-09-03T06:16:20;2.85;;;1.55;;
45730;SDS011;31440;48.584;13.460;2022-09-03T06:18:47;2.63;;;1.60;;
45730;SDS011;31440;48.584;13.460;2022-09-03T06:21:13;3.08;;;1.70;;
45730;SDS011;31440;48.584;13.460;2022-09-03T06:23:39;3.70;;;1.75;;
45730;SDS011;31440;48.584;13.460;2022-09-03T06:26:12;1.75;;;1.55;;
45730;SDS011;31440;48.584;13.460;2022-09-03T06:28:39;4.80;;;1.88;;
45730;SDS011;31440;48.584;13.460;2022-09-03T06:31:08;3.15;;;1.60;;
45730;SDS011;31440;48.584;13.460;2022-09-03T06:33:35;2.83;;;1.88;;
45730;SDS011;31440;48.584;13.460;2022-09-03T06:36:02;3.45;;;1.98;;
45730;SDS011;31440;48.584;13.460;2022-09-03T06:38:31;3.65;;;2.22;;
45730;SDS011;31440;48.584;13.460;2022-09-03T06:41:02;2.67;;;2.15;;
45730;SDS011;31440;48.584;13.460;2022-09-03T06:43:31;3.28;;;2.10;;
45730;SDS011;31440;48.584;13.460;2022-09-03T06:46:00;2.83;;;2.20;;
45730;SDS011;31440;48.584;13.460;2022-09-03T06:48:28;5.07;;;1.92;;
45730;SDS011;31440;48.584;13.460;2022-09-03T06:50:56;2.63;;;1.95;;
45730;SDS011;31440;48.584;13.460;2022-09-03T06:53:24;3.22;;;1.83;;
45730;SDS011;31440;48.584;13.460;2022-09-03T06:55:51;2.33;;;1.55;;
45730;SDS011;31440;48.584;13.460;2022-09-03T06:58:28;1.48;;;1.33;;
45730;SDS011;31440;48.584;13.460;2022-09-03T07:01:01;2.50;;;1.40;;
45730;SDS011;31440;48.584;13.460;2022-09-03T07:03:31;4.53;;;1.98;;
45730;SDS011;31440;48.584;13.460;2022-09-03T07:06:04;2.08;;;1.48;;
45730;SDS011;31440;48.584;13.460;2022-09-03T07:08:31;1.52;;;1.42;;
45730;SDS011;31440;48.584;13.460;2022-09-03T07:11:05;2.42;;;1.42;;
45730;SDS011;31440;48.584;13.460;2022-09-03T07:13:38;3.65;;;1.92;;
45730;SDS011;31440;48.584;13.460;2022-09-03T07:16:13;3.33;;;1.75;;
45730;SDS011;31440;48.584;13.460;2022-09-03T07:18:39;2.92;;;2.03;;
45730;SDS011;31440;48.584;13.460;2022-09-03T07:21:09;2.38;;;1.33;;
45730;SDS011;31440;48.584;13.460;2022-09-03T07:23:46;1.73;;;1.63;;
45730;SDS011;31440;48.584;13.460;2022-09-03T07:26:13;4.07;;;1.30;;
45730;SDS011;31440;48.584;13.460;2022-09-03T07:28:50;2.42;;;1.85;;
45730;SDS011;31440;48.584;13.460;2022-09-03T07:31:22;2.13;;;1.83;;
45730;SDS011;31440;48.584;13.460;2022-09-03T07:33:52;2.50;;;1.40;;
45730;SDS011;31440;48.584;13.460;2022-09-03T07:36:20;1.63;;;1.23;;
45730;SDS011;31440;48.584;13.460;2022-09-03T07:38:46;1.63;;;1.20;;
45730;SDS011;31440;48.584;13.460;2022-09-03T07:41:13;1.67;;;1.30;;
45730;SDS011;31440;48.584;13.460;2022-09-03T07:43:41;1.90;;;1.48;;
45730;SDS011;31440;48.584;13.460;2022-09-03T07:46:08;4.00;;;1.90;;
45730;SDS011;31440;48.584;13.460;2022-09-03T07:48:39;1.67;;;1.58;;
45730;SDS011;31440;48.584;13.460;2022-09-03T07:51:05;2.30;;;1.50;;
45730;SDS011;31440;48.584;13.460;2022-09-03T07:53:33;2.30;;;1.52;;
45730;SDS011;31440;48.584;13.460;2022-09-03T07:56:02;2.35;;;1.45;;
45730;SDS011;31440;48.584;13.460;2022-09-03T07:58:30;2.15;;;1.40;;
45730;SDS011;31440;48.584;13.460;2022-09-03T08:00:56;4.38;;;1.63;;
45730;SDS011;31440;48.584;13.460;2022-09-03T08:03:23;1.55;;;1.42;;
45730;SDS011;31440;48.584;13.460;2022-09-03T08:05:48;3.90;;;1.48;;
45730;SDS011;31440;48.584;13.460;2022-09-03T08:08:14;3.80;;;1.60;;
45730;SDS011;31440;48.584;13.460;2022-09-03T08:10:41;3.47;;;1.58;;
45730;SDS011;31440;48.584;13.460;2022-09-03T08:13:08;3.35;;;1.88;;
45730;SDS011;31440;48.584;13.460;2022-09-03T08:15:35;1.55;;;1.35;;
45730;SDS011;31440;48.584;13.460;2022-09-03T08:18:01;2.10;;;1.90;;
45730;SDS011;31440;48.584;13.460;2022-09-03T08:20:27;3.28;;;1.40;;
45730;SDS011;31440;48.584;13.460;2022-09-03T08:22:59;2.17;;;1.88;;
45730;SDS011;31440;48.584;13.460;2022-09-03T08:25:25;3.08;;;2.03;;
45730;SDS011;31440;48.584;13.460;2022-09-03T08:27:51;3.42;;;1.45;;
45730;SDS011;31440;48.584;13.460;2022-09-03T08:30:16;2.03;;;1.63;;
45730;SDS011;31440;48.584;13.460;2022-09-03T08:32:43;4.05;;;1.70;;
45730;SDS011;31440;48.584;13.460;2022-09-03T08:35:08;1.67;;;1.25;;
45730;SDS011;31440;48.584;13.460;2022-09-03T08:37:34;5.05;;;2.20;;
45730;SDS011;31440;48.584;13.460;2022-09-03T08:40:00;2.72;;;1.80;;
45730;SDS011;31440;48.584;13.460;2022-09-03T08:42:43;6.72;;;1.83;;
45730;SDS011;31440;48.584;13.460;2022-09-03T08:45:33;1.90;;;1.73;;
45730;SDS011;31440;48.584;13.460;2022-09-03T08:48:05;1.77;;;1.60;;
45730;SDS011;31440;48.584;13.460;2022-09-03T08:50:41;3.42;;;1.60;;
45730;SDS011;31440;48.584;13.460;2022-09-03T08:53:14;2.65;;;1.65;;
45730;SDS011;31440;48.584;13.460;2022-09-03T08:55:49;1.77;;;1.67;;
45730;SDS011;31440;48.584;13.460;2022-09-03T08:58:21;8.82;;;2.55;;
45730;SDS011;31440;48.584;13.460;2022-09-03T09:00:53;3.40;;;1.92;;
45730;SDS011;31440;48.584;13.460;2022-09-03T09:03:41;2.67;;;1.85;;
45730;SDS011;31440;48.584;13.460;2022-09-03T09:09:31;1.92;;;1.60;;
45730;SDS011;31440;48.584;13.460;2022-09-03T09:23:27;3.33;;;1.42;;
45730;SDS011;31440;48.584;13.460;2022-09-03T09:25:58;2.08;;;1.58;;
45730;SDS011;31440;48.584;13.460;2022-09-03T09:30:57;2.47;;;1.45;;
45730;SDS011;31440;48.584;13.460;2022-09-03T09:33:25;2.00;;;1.42;;
45730;SDS011;31440;48.584;13.460;2022-09-03T09:35:55;2.03;;;1.58;;
45730;SDS011;31440;48.584;13.460;2022-09-03T09:38:27;3.05;;;1.45;;
45730;SDS011;31440;48.584;13.460;2022-09-03T09:40:54;3.20;;;1.63;;
45730;SDS011;31440;48.584;13.460;2022-09-03T09:43:21;3.72;;;1.98;;
45730;SDS011;31440;48.584;13.460;2022-09-03T09:45:50;2.22;;;1.67;;
45730;SDS011;31440;48.584;13.460;2022-09-03T09:48:20;2.17;;;1.90;;
45730;SDS011;31440;48.584;13.460;2022-09-03T09:54:09;3.13;;;2.00;;
45730;SDS011;31440;48.584;13.460;2022-09-03T09:56:38;2.08;;;1.55;;
45730;SDS011;31440;48.584;13.460;2022-09-03T09:59:04;3.25;;;1.27;;
45730;SDS011;31440;48.584;13.460;2022-09-03T10:01:31;2.50;;;1.77;;
45730;SDS011;31440;48.584;13.460;2022-09-03T10:03:58;3.08;;;1.42;;
45730;SDS011;31440;48.584;13.460;2022-09-03T10:06:25;2.88;;;1.60;;
45730;SDS011;31440;48.584;13.460;2022-09-03T10:14:30;3.35;;;1.55;;
45730;SDS011;31440;48.584;13.460;2022-09-03T10:17:04;2.08;;;1.42;;
45730;SDS011;31440;48.584;13.460;2022-09-03T10:28:20;3.75;;;1.52;;
45730;SDS011;31440;48.584;13.460;2022-09-03T10:33:26;1.80;;;1.20;;
45730;SDS011;31440;48.584;13.460;2022-09-03T10:36:09;2.50;;;1.48;;
45730;SDS011;31440;48.584;13.460;2022-09-03T10:38:51;4.50;;;1.30;;
45730;SDS011;31440;48.584;13.460;2022-09-03T10:41:57;2.15;;;1.20;;
45730;SDS011;31440;48.584;13.460;2022-09-03T10:50:14;4.15;;;1.85;;
45730;SDS011;31440;48.584;13.460;2022-09-03T10:55:19;5.07;;;1.42;;
45730;SDS011;31440;48.584;13.460;2022-09-03T11:01:02;2.28;;;1.20;;
45730;SDS011;31440;48.584;13.460;2022-09-03T11:11:26;1.10;;;1.00;;
45730;SDS011;31440;48.584;13.460;2022-09-03T11:14:00;1.95;;;1.20;;
45730;SDS011;31440;48.584;13.460;2022-09-03T11:16:34;2.20;;;1.60;;
45730;SDS011;31440;48.584;13.460;2022-09-03T11:19:13;1.20;;;1.10;;
45730;SDS011;31440;48.584;13.460;2022-09-03T11:21:42;3.15;;;1.38;;
45730;SDS011;31440;48.584;13.460;2022-09-03T11:24:10;9.60;;;1.30;;
45730;SDS011;31440;48.584;13.460;2022-09-03T11:26:40;1.90;;;1.08;;
45730;SDS011;31440;48.584;13.460;2022-09-03T11:29:10;9.93;;;1.35;;
45730;SDS011;31440;48.584;13.460;2022-09-03T11:34:11;3.30;;;1.33;;
45730;SDS011;31440;48.584;13.460;2022-09-03T11:36:39;1.58;;;1.30;;
45730;SDS011;31440;48.584;13.460;2022-09-03T11:39:17;2.95;;;1.30;;
45730;SDS011;31440;48.584;13.460;2022-09-03T11:41:55;1.65;;;1.30;;
45730;SDS011;31440;48.584;13.460;2022-09-03T11:44:23;2.95;;;1.35;;
45730;SDS011;31440;48.584;13.460;2022-09-03T11:47:00;1.90;;;1.40;;
45730;SDS011;31440;48.584;13.460;2022-09-03T11:49:29;1.85;;;1.30;;
45730;SDS011;31440;48.584;13.460;2022-09-03T11:51:58;4.15;;;1.10;;
45730;SDS011;31440;48.584;13.460;2022-09-03T11:54:25;1.67;;;1.55;;
45730;SDS011;31440;48.584;13.460;2022-09-03T11:59:38;2.05;;;1.40;;
45730;SDS011;31440;48.584;13.460;2022-09-03T12:04:58;4.50;;;1.20;;
45730;SDS011;31440;48.584;13.460;2022-09-03T12:11:33;1.40;;;1.10;;
45730;SDS011;31440;48.584;13.460;2022-09-03T12:14:19;2.50;;;1.50;;
45730;SDS011;31440;48.584;13.460;2022-09-03T12:16:49;2.10;;;1.33;;
45730;SDS011;31440;48.584;13.460;2022-09-03T12:19:25;2.45;;;1.40;;
45730;SDS011;31440;48.584;13.460;2022-09-03T12:21:56;1.40;;;1.30;;
45730;SDS011;31440;48.584;13.460;2022-09-03T12:24:21;8.93;;;1.30;;
45730;SDS011;31440;48.584;13.460;2022-09-03T12:26:56;2.15;;;1.23;;
45730;SDS011;31440;48.584;13.460;2022-09-03T12:29:24;2.88;;;1.35;;
45730;SDS011;31440;48.584;13.460;2022-09-03T12:31:51;2.13;;;1.40;;
45730;SDS011;31440;48.584;13.460;2022-09-03T12:34:20;1.58;;;1.00;;
45730;SDS011;31440;48.584;13.460;2022-09-03T12:36:51;4.22;;;1.50;;
45730;SDS011;31440;48.584;13.460;2022-09-03T12:41:58;3.67;;;1.10;;
45730;SDS011;31440;48.584;13.460;2022-09-03T12:44:37;1.85;;;1.30;;
45730;SDS011;31440;48.584;13.460;2022-09-03T12:47:12;2.17;;;1.23;;
45730;SDS011;31440;48.584;13.460;2022-09-03T12:49:42;2.17;;;1.27;;
45730;SDS011;31440;48.584;13.460;2022-09-03T12:54:52;1.95;;;1.30;;
45730;SDS011;31440;48.584;13.460;2022-09-03T12:57:43;4.28;;;1.38;;
45730;SDS011;31440;48.584;13.460;2022-09-03T13:00:12;1.73;;;1.25;;
45730;SDS011;31440;48.584;13.460;2022-09-03T13:02:51;2.42;;;1.17;;
45730;SDS011;31440;48.584;13.460;2022-09-03T13:05:28;1.33;;;1.23;;
45730;SDS011;31440;48.584;13.460;2022-09-03T13:07:56;1.38;;;1.27;;
45730;SDS011;31440;48.584;13.460;2022-09-03T13:10:29;2.95;;;1.30;;
45730;SDS011;31440;48.584;13.460;2022-09-03T13:13:01;2.65;;;1.30;;
45730;SDS011;31440;48.584;13.460;2022-09-03T13:15:46;1.35;;;1.25;;
45730;SDS011;31440;48.584;13.460;2022-09-03T13:29:55;1.95;;;1.25;;
45730;SDS011;31440;48.584;13.460;2022-09-03T13:32:31;1.70;;;1.40;;
45730;SDS011;31440;48.584;13.460;2022-09-03T13:35:01;2.03;;;1.60;;
45730;SDS011;31440;48.584;13.460;2022-09-03T13:43:44;2.05;;;1.42;;
45730;SDS011;31440;48.584;13.460;2022-09-03T13:46:20;1.60;;;1.42;;
45730;SDS011;31440;48.584;13.460;2022-09-03T13:48:50;5.03;;;1.25;;
45730;SDS011;31440;48.584;13.460;2022-09-03T13:51:45;1.10;;;1.05;;
45730;SDS011;31440;48.584;13.460;2022-09-03T13:54:26;9.65;;;1.40;;
45730;SDS011;31440;48.584;13.460;2022-09-03T14:02:22;1.67;;;1.40;;
45730;SDS011;31440;48.584;13.460;2022-09-03T14:05:15;2.33;;;1.48;;
45730;SDS011;31440;48.584;13.460;2022-09-03T14:13:56;2.10;;;1.65;;
45730;SDS011;31440;48.584;13.460;2022-09-03T14:19:45;2.47;;;1.20;;
45730;SDS011;31440;48.584;13.460;2022-09-03T14:21:59;1.25;;;1.10;;
45730;SDS011;31440;48.584;13.460;2022-09-03T14:27:03;1.63;;;1.40;;
45730;SDS011;31440;48.584;13.460;2022-09-03T14:29:31;2.58;;;1.40;;
45730;SDS011;31440;48.584;13.460;2022-09-03T15:05:07;1.60;;;1.40;;
45730;SDS011;31440;48.584;13.460;2022-09-03T15:07:58;1.88;;;1.50;;
45730;SDS011;31440;48.584;13.460;2022-09-03T15:13:07;2.58;;;1.40;;
45730;SDS011;31440;48.584;13.460;2022-09-03T15:18:20;1.60;;;1.38;;
45730;SDS011;31440;48.584;13.460;2022-09-03T15:32:29;2.30;;;1.70;;
45730;SDS011;31440;48.584;13.460;2022-09-03T15:40:04;2.97;;;1.55;;
45730;SDS011;31440;48.584;13.460;2022-09-03T15:42:31;2.42;;;1.33;;
45730;SDS011;31440;48.584;13.460;2022-09-03T15:45:13;1.50;;;1.40;;
45730;SDS011;31440;48.584;13.460;2022-09-03T15:50:15;3.28;;;1.75;;
45730;SDS011;31440;48.584;13.460;2022-09-03T15:52:55;3.72;;;1.70;;
45730;SDS011;31440;48.584;13.460;2022-09-03T15:58:47;4.47;;;1.65;;
45730;SDS011;31440;48.584;13.460;2022-09-03T16:06:37;3.40;;;1.60;;
45730;SDS011;31440;48.584;13.460;2022-09-03T16:14:34;1.60;;;1.40;;
45730;SDS011;31440;48.584;13.460;2022-09-03T16:17:31;2.28;;;1.60;;
45730;SDS011;31440;48.584;13.460;2022-09-03T16:22:30;3.20;;;2.05;;
45730;SDS011;31440;48.584;13.460;2022-09-03T16:31:20;2.30;;;2.10;;
45730;SDS011;31440;48.584;13.460;2022-09-03T16:36:49;1.83;;;1.48;;
45730;SDS011;31440;48.584;13.460;2022-09-03T16:39:39;3.38;;;1.58;;
45730;SDS011;31440;48.584;13.460;2022-09-03T16:50:03;2.30;;;1.83;;
45730;SDS011;31440;48.584;13.460;2022-09-03T16:52:58;1.85;;;1.52;;
45730;SDS011;31440;48.584;13.460;2022-09-03T16:55:55;5.05;;;1.77;;
45730;SDS011;31440;48.584;13.460;2022-09-03T17:01:32;1.55;;;1.45;;
45730;SDS011;31440;48.584;13.460;2022-09-03T17:12:27;2.00;;;1.60;;
45730;SDS011;31440;48.584;13.460;2022-09-03T17:31:07;3.40;;;1.60;;
45730;SDS011;31440;48.584;13.460;2022-09-03T17:34:23;6.10;;;2.03;;
45730;SDS011;31440;48.584;13.460;2022-09-03T17:51:23;3.65;;;2.53;;
45730;SDS011;31440;48.584;13.460;2022-09-03T17:53:52;3.67;;;2.30;;
45730;SDS011;31440;48.584;13.460;2022-09-03T18:04:42;3.75;;;2.20;;
45730;SDS011;31440;48.584;13.460;2022-09-03T18:07:16;2.55;;;2.25;;
45730;SDS011;31440;48.584;13.460;2022-09-03T18:18:23;3.78;;;2.67;;
45730;SDS011;31440;48.584;13.460;2022-09-03T18:20:50;2.58;;;2.38;;
45730;SDS011;31440;48.584;13.460;2022-09-03T18:23:46;6.35;;;2.47;;
45730;SDS011;31440;48.584;13.460;2022-09-03T18:26:57;4.53;;;2.53;;
45730;SDS011;31440;48.584;13.460;2022-09-03T18:29:45;2.55;;;2.35;;
45730;SDS011;31440;48.584;13.460;2022-09-03T18:32:37;3.47;;;2.63;;
45730;SDS011;31440;48.584;13.460;2022-09-03T18:35:21;3.90;;;2.83;;
45730;SDS011;31440;48.584;13.460;2022-09-03T18:38:08;5.03;;;2.72;;
45730;SDS011;31440;48.584;13.460;2022-09-03T18:40:56;3.38;;;2.60;;
45730;SDS011;31440;48.584;13.460;2022-09-03T18:50:10;3.22;;;2.63;;
45730;SDS011;31440;48.584;13.460;2022-09-03T18:53:10;3.35;;;2.53;;
45730;SDS011;31440;48.584;13.460;2022-09-03T18:56:11;3.78;;;2.40;;
45730;SDS011;31440;48.584;13.460;2022-09-03T18:59:25;4.95;;;2.95;;
45730;SDS011;31440;48.584;13.460;2022-09-03T19:02:22;3.15;;;2.38;;
45730;SDS011;31440;48.584;13.460;2022-09-03T19:05:18;4.95;;;2.47;;
45730;SDS011;31440;48.584;13.460;2022-09-03T19:08:25;2.53;;;2.33;;
45730;SDS011;31440;48.584;13.460;2022-09-03T19:14:28;4.38;;;3.03;;
45730;SDS011;31440;48.584;13.460;2022-09-03T19:17:18;7.07;;;3.45;;
45730;SDS011;31440;48.584;13.460;2022-09-03T19:20:17;3.83;;;3.20;;
45730;SDS011;31440;48.584;13.460;2022-09-03T19:23:08;4.82;;;3.20;;
45730;SDS011;31440;48.584;13.460;2022-09-03T19:25:52;4.25;;;3.25;;
45730;SDS011;31440;48.584;13.460;2022-09-03T19:28:42;3.30;;;3.03;;
45730;SDS011;31440;48.584;13.460;2022-09-03T19:34:59;5.13;;;3.03;;
45730;SDS011;31440;48.584;13.460;2022-09-03T19:37:59;3.30;;;2.85;;
45730;SDS011;31440;48.584;13.460;2022-09-03T19:40:56;5.30;;;3.67;;
45730;SDS011;31440;48.584;13.460;2022-09-03T19:47:01;6.53;;;4.05;;
45730;SDS011;31440;48.584;13.460;2022-09-03T19:52:52;4.57;;;3.90;;
45730;SDS011;31440;48.584;13.460;2022-09-03T19:55:43;4.78;;;3.35;;
45730;SDS011;31440;48.584;13.460;2022-09-03T19:58:30;5.85;;;3.97;;
45730;SDS011;31440;48.584;13.460;2022-09-03T20:01:18;5.57;;;3.63;;
45730;SDS011;31440;48.584;13.460;2022-09-03T20:04:12;5.05;;;3.92;;
45730;SDS011;31440;48.584;13.460;2022-09-03T20:06:59;4.07;;;3.63;;
45730;SDS011;31440;48.584;13.460;2022-09-03T20:09:45;4.28;;;3.35;;
45730;SDS011;31440;48.584;13.460;2022-09-03T20:12:35;4.88;;;3.58;;
45730;SDS011;31440;48.584;13.460;2022-09-03T20:15:05;4.07;;;3.10;;
45730;SDS011;31440;48.584;13.460;2022-09-03T20:20:25;5.90;;;3.25;;
45730;SDS011;31440;48.584;13.460;2022-09-03T20:22:59;3.72;;;3.42;;
45730;SDS011;31440;48.584;13.460;2022-09-03T20:28:12;5.32;;;3.20;;
45730;SDS011;31440;48.584;13.460;2022-09-03T20:33:36;4.13;;;3.70;;
45730;SDS011;31440;48.584;13.460;2022-09-03T20:39:07;3.45;;;3.15;;
45730;SDS011;31440;48.584;13.460;2022-09-03T20:49:41;7.65;;;3.83;;
45730;SDS011;31440;48.584;13.460;2022-09-03T20:55:28;4.65;;;3.95;;
45730;SDS011;31440;48.584;13.460;2022-09-03T20:58:04;5.38;;;4.00;;
45730;SDS011;31440;48.584;13.460;2022-09-03T21:00:52;4.47;;;3.67;;
45730;SDS011;31440;48.584;13.460;2022-09-03T21:03:43;4.78;;;4.05;;